createdAt,value
2018-05-14T00:00:51.101Z,1.50
2018-05-14T00:03:18.857Z,0.93
2018-05-14T00:05:46.401Z,1.00
2018-05-14T00:08:14.077Z,1.00
2018-05-14T00:10:41.625Z,1.17
2018-05-14T00:13:09.296Z,0.90
2018-05-14T00:15:36.845Z,1.13
2018-05-14T00:18:05.420Z,1.00
2018-05-14T00:20:32.969Z,1.27
2018-05-14T00:23:00.541Z,1.20
2018-05-14T00:25:28.093Z,1.53
2018-05-14T00:27:55.667Z,1.20
2018-05-14T00:30:23.216Z,1.03
2018-05-14T00:32:50.807Z,8.60
2018-05-14T00:35:18.364Z,5.57
2018-05-14T00:37:45.922Z,3.67
2018-05-14T00:40:13.499Z,2.37
2018-05-14T00:42:41.055Z,1.50
2018-05-14T00:45:08.649Z,1.00
2018-05-14T00:47:36.969Z,1.10
2018-05-14T00:50:04.700Z,0.90
2018-05-14T00:52:32.249Z,1.10
2018-05-14T00:55:12.337Z,1.20
2018-05-14T00:57:39.893Z,0.97
2018-05-14T01:00:07.466Z,1.27
2018-05-14T01:02:35.018Z,1.40
2018-05-14T01:05:02.594Z,1.03
2018-05-14T01:07:30.909Z,1.00
2018-05-14T01:09:58.484Z,1.43
2018-05-14T01:12:26.041Z,1.30
2018-05-14T01:14:53.618Z,1.00
2018-05-14T01:17:21.199Z,0.90
2018-05-14T01:19:48.770Z,1.00
2018-05-14T01:22:16.322Z,1.37
2018-05-14T01:24:50.224Z,1.00
2018-05-14T01:27:18.541Z,1.17
2018-05-14T01:29:46.112Z,1.07
2018-05-14T01:32:13.669Z,1.13
2018-05-14T01:34:42.014Z,1.50
2018-05-14T01:37:09.558Z,0.80
2018-05-14T01:39:37.135Z,1.00
2018-05-14T01:42:04.682Z,1.13
2018-05-14T01:44:32.257Z,1.17
2018-05-14T01:46:59.802Z,1.23
2018-05-14T01:49:27.378Z,1.00
2018-05-14T01:51:54.924Z,1.07
2018-05-14T01:54:22.498Z,1.17
2018-05-14T01:56:50.051Z,1.17
2018-05-14T01:59:17.624Z,0.83
2018-05-14T02:01:45.291Z,1.03
2018-05-14T02:04:13.641Z,1.00
2018-05-14T02:06:41.194Z,1.20
2018-05-14T02:09:08.782Z,0.90
2018-05-14T02:11:36.339Z,1.30
2018-05-14T02:14:04.651Z,1.40
2018-05-14T02:16:32.282Z,1.47
2018-05-14T02:18:59.859Z,1.20
2018-05-14T02:21:27.440Z,2.00
2018-05-14T02:23:54.993Z,1.37
2018-05-14T02:26:22.570Z,1.47
2018-05-14T02:28:50.129Z,1.17
2018-05-14T02:31:17.696Z,1.03
2018-05-14T02:33:45.249Z,1.53
2018-05-14T02:36:12.833Z,1.67
2018-05-14T02:38:40.386Z,1.50
2018-05-14T02:41:07.968Z,1.17
2018-05-14T02:43:36.278Z,1.40
2018-05-14T02:46:03.926Z,1.30
2018-05-14T02:48:31.481Z,1.50
2018-05-14T02:50:59.065Z,1.50
2018-05-14T02:53:26.619Z,1.60
2018-05-14T02:55:54.198Z,1.57
2018-05-14T02:58:21.753Z,1.50
2018-05-14T03:00:49.329Z,1.60
2018-05-14T03:03:16.878Z,1.30
2018-05-14T03:05:44.454Z,1.40
2018-05-14T03:08:12.017Z,1.63
2018-05-14T03:10:39.599Z,1.20
2018-05-14T03:13:07.918Z,1.50
2018-05-14T03:15:35.489Z,2.00
2018-05-14T03:18:03.045Z,1.40
2018-05-14T03:20:31.390Z,1.50
2018-05-14T03:22:58.937Z,1.63
2018-05-14T03:25:26.518Z,1.17
2018-05-14T03:27:54.065Z,1.60
2018-05-14T03:30:21.646Z,1.93
2018-05-14T03:32:49.193Z,1.30
2018-05-14T03:35:16.772Z,1.47
2018-05-14T03:37:44.330Z,1.67
2018-05-14T03:40:11.901Z,1.63
2018-05-14T03:42:39.450Z,1.90
2018-05-14T03:45:07.022Z,1.50
2018-05-14T03:47:34.593Z,1.27
2018-05-14T03:50:02.301Z,1.53
2018-05-14T03:52:29.880Z,6.00
2018-05-14T03:54:57.534Z,3.13
2018-05-14T03:57:25.110Z,2.57
2018-05-14T04:00:05.101Z,3.20
2018-05-14T04:02:44.405Z,2.50
2018-05-14T04:05:18.728Z,2.67
2018-05-14T04:07:46.304Z,2.50
2018-05-14T04:10:13.868Z,3.00
2018-05-14T04:12:42.208Z,2.73
2018-05-14T04:15:09.757Z,2.90
2018-05-14T04:17:37.325Z,3.80
2018-05-14T04:20:04.957Z,2.67
2018-05-14T04:22:32.533Z,2.93
2018-05-14T04:25:00.090Z,2.50
2018-05-14T04:27:27.670Z,2.10
2018-05-14T04:29:55.222Z,2.20
2018-05-14T04:32:22.802Z,2.30
2018-05-14T04:34:50.349Z,2.43
2018-05-14T04:37:17.962Z,2.60
2018-05-14T04:39:45.542Z,2.80
2018-05-14T04:42:13.158Z,2.80
2018-05-14T04:44:41.479Z,2.83
2018-05-14T04:47:09.054Z,2.70
2018-05-14T04:49:36.611Z,3.37
2018-05-14T04:52:04.189Z,2.67
2018-05-14T04:54:31.745Z,3.27
2018-05-14T04:56:59.316Z,3.23
2018-05-14T04:59:26.870Z,3.27
2018-05-14T05:01:54.445Z,3.13
2018-05-14T05:04:22.801Z,6.87
2018-05-14T05:06:50.377Z,3.40
2018-05-14T05:09:17.942Z,3.10
2018-05-14T05:11:45.517Z,2.87
2018-05-14T05:14:13.833Z,2.80
2018-05-14T05:16:41.416Z,2.87
2018-05-14T05:19:08.963Z,2.77
2018-05-14T05:21:37.303Z,3.17
2018-05-14T05:24:05.989Z,3.90
2018-05-14T05:26:33.533Z,4.33
2018-05-14T05:29:01.105Z,4.40
2018-05-14T05:31:28.662Z,3.93
2018-05-14T05:33:56.643Z,4.00
2018-05-14T05:36:24.196Z,4.80
2018-05-14T05:38:51.773Z,4.30
2018-05-14T05:41:19.322Z,5.10
2018-05-14T05:43:46.897Z,4.30
2018-05-14T05:46:15.219Z,4.37
2018-05-14T05:48:42.800Z,4.70
2018-05-14T05:51:10.345Z,5.13
2018-05-14T05:53:38.684Z,5.43
2018-05-14T05:56:06.253Z,4.90
2018-05-14T05:58:33.830Z,6.00
2018-05-14T06:01:01.387Z,5.50
2018-05-14T06:03:29.725Z,5.50
2018-05-14T06:05:57.281Z,6.20
2018-05-14T06:08:24.858Z,5.83
2018-05-14T06:10:52.414Z,5.83
2018-05-14T06:13:20.013Z,6.73
2018-05-14T06:15:47.565Z,6.07
2018-05-14T06:18:15.144Z,6.47
2018-05-14T06:20:42.703Z,6.50
2018-05-14T06:23:10.274Z,7.10
2018-05-14T06:25:37.817Z,6.43
2018-05-14T06:28:05.389Z,6.93
2018-05-14T06:30:32.937Z,6.20
2018-05-14T06:33:00.777Z,7.03
2018-05-14T06:35:29.140Z,6.97
2018-05-14T06:37:56.706Z,7.37
2018-05-14T06:40:25.030Z,6.80
2018-05-14T06:42:52.606Z,7.17
2018-05-14T06:45:20.161Z,7.33
2018-05-14T06:47:47.741Z,7.20
2018-05-14T06:50:15.306Z,8.13
2018-05-14T06:52:42.883Z,8.17
2018-05-14T06:55:11.203Z,7.60
2018-05-14T06:57:38.783Z,7.93
2018-05-14T07:00:06.343Z,9.03
2018-05-14T07:02:33.925Z,8.50
2018-05-14T07:05:01.484Z,8.07
2018-05-14T07:07:29.198Z,7.20
2018-05-14T07:09:56.777Z,7.50
2018-05-14T07:12:25.094Z,7.30
2018-05-14T07:14:52.675Z,7.60
2018-05-14T07:17:20.218Z,7.30
2018-05-14T07:19:48.564Z,6.53
2018-05-14T07:22:16.110Z,8.60
2018-05-14T07:24:43.720Z,7.53
2018-05-14T07:27:11.265Z,7.80
2018-05-14T07:29:39.604Z,6.73
2018-05-14T07:32:07.157Z,7.30
2018-05-14T07:34:34.733Z,6.77
2018-05-14T07:37:02.300Z,7.50
2018-05-14T07:39:29.875Z,6.60
2018-05-14T07:41:57.426Z,6.03
2018-05-14T07:44:25.778Z,6.43
2018-05-14T07:46:53.705Z,8.23
2018-05-14T07:49:21.296Z,7.33
2018-05-14T07:51:49.569Z,6.53
2018-05-14T07:54:17.152Z,6.30
2018-05-14T07:56:44.713Z,7.20
2018-05-14T07:59:12.289Z,6.30
2018-05-14T08:01:39.837Z,5.80
2018-05-14T08:04:07.413Z,6.30
2018-05-14T08:06:35.730Z,6.07
2018-05-14T08:09:03.302Z,5.57
2018-05-14T08:11:30.857Z,5.27
2018-05-14T08:13:58.441Z,5.90
2018-05-14T08:16:25.985Z,4.93
2018-05-14T08:18:53.605Z,5.13
2018-05-14T08:21:21.157Z,5.10
2018-05-14T08:23:48.736Z,5.60
2018-05-14T08:26:16.286Z,6.37
2018-05-14T08:28:43.833Z,4.43
2018-05-14T08:31:11.412Z,5.90
2018-05-14T08:33:38.972Z,4.80
2018-05-14T08:36:06.551Z,3.97
2018-05-14T08:38:34.102Z,4.80
2018-05-14T08:41:01.669Z,4.70
2018-05-14T08:43:29.305Z,4.17
2018-05-14T08:45:56.820Z,3.60
2018-05-14T08:48:24.367Z,3.43
2018-05-14T08:50:51.942Z,3.77
2018-05-14T08:53:19.495Z,3.10
2018-05-14T08:55:47.078Z,2.93
2018-05-14T08:58:14.633Z,3.23
2018-05-14T09:00:42.304Z,3.03
2018-05-14T09:03:09.786Z,4.17
2018-05-14T09:05:37.365Z,3.23
2018-05-14T09:08:05.717Z,3.13
2018-05-14T09:10:33.292Z,3.17
2018-05-14T09:13:00.851Z,2.90
2018-05-14T09:15:28.433Z,3.07
2018-05-14T09:17:55.986Z,2.20
2018-05-14T09:20:23.561Z,3.00
2018-05-14T09:22:51.121Z,2.73
2018-05-14T09:25:18.696Z,2.93
2018-05-14T09:27:47.013Z,3.30
2018-05-14T09:30:14.589Z,2.80
2018-05-14T09:32:42.181Z,2.50
2018-05-14T09:35:09.763Z,2.73
2018-05-14T09:37:37.321Z,2.50
2018-05-14T09:40:04.954Z,3.00
2018-05-14T09:42:32.505Z,2.93
2018-05-14T09:45:00.073Z,3.17
2018-05-14T09:47:27.629Z,2.70
2018-05-14T09:49:55.207Z,2.30
2018-05-14T09:52:23.529Z,2.50
2018-05-14T09:54:51.110Z,2.50
2018-05-14T09:57:18.734Z,2.70
2018-05-14T09:59:46.305Z,2.60
2018-05-14T10:02:13.861Z,2.77
2018-05-14T10:04:41.408Z,2.93
2018-05-14T10:07:08.986Z,2.83
2018-05-14T10:09:36.617Z,2.40
2018-05-14T10:12:05.810Z,2.90
2018-05-14T10:14:33.362Z,2.60
2018-05-14T10:17:00.941Z,3.10
2018-05-14T10:19:28.495Z,2.70
2018-05-14T10:21:56.110Z,2.80
2018-05-14T10:24:23.678Z,3.23
2018-05-14T10:26:51.253Z,3.00
2018-05-14T10:29:19.570Z,2.87
2018-05-14T10:31:47.186Z,2.43
2018-05-14T10:34:14.738Z,2.67
2018-05-14T10:36:42.318Z,2.90
2018-05-14T10:39:09.873Z,2.77
2018-05-14T10:41:37.472Z,2.70
2018-05-14T10:44:05.017Z,2.80
2018-05-14T10:46:32.597Z,2.90
2018-05-14T10:49:00.213Z,3.53
2018-05-14T10:51:27.792Z,2.90
2018-05-14T10:53:55.348Z,3.53
2018-05-14T10:56:22.922Z,3.17
2018-05-14T10:58:52.418Z,3.20
2018-05-14T11:01:21.201Z,3.00
2018-05-14T11:03:48.749Z,3.40
2018-05-14T11:06:16.328Z,3.17
2018-05-14T11:08:43.882Z,3.07
2018-05-14T11:11:11.461Z,3.40
2018-05-14T11:13:39.014Z,3.97
2018-05-14T11:16:06.603Z,5.77
2018-05-14T11:18:34.150Z,4.07
2018-05-14T11:21:01.728Z,3.40
2018-05-14T11:23:30.038Z,3.50
2018-05-14T11:25:57.616Z,3.60
2018-05-14T11:28:25.166Z,3.70
2018-05-14T11:30:52.745Z,3.60
2018-05-14T11:33:20.304Z,4.27
2018-05-14T11:35:47.882Z,3.90
2018-05-14T11:38:15.425Z,3.77
2018-05-14T11:40:42.982Z,4.10
2018-05-14T11:43:10.574Z,4.23
2018-05-14T11:45:38.125Z,3.97
2018-05-14T11:48:06.465Z,3.93
2018-05-14T11:50:34.843Z,3.63
2018-05-14T11:53:02.421Z,4.43
2018-05-14T11:55:29.989Z,3.77
2018-05-14T11:57:57.570Z,4.30
2018-05-14T12:00:25.893Z,3.83
2018-05-14T12:02:53.484Z,4.73
2018-05-14T12:05:21.034Z,4.33
2018-05-14T12:07:48.615Z,4.13
2018-05-14T12:10:16.166Z,3.77
2018-05-14T12:12:43.766Z,4.00
2018-05-14T12:15:11.319Z,4.40
2018-05-14T12:17:38.895Z,3.90
2018-05-14T12:20:06.444Z,4.17
2018-05-14T12:22:34.017Z,4.43
2018-05-14T12:25:01.638Z,5.60
2018-05-14T12:27:29.222Z,4.90
2018-05-14T12:29:56.785Z,6.40
2018-05-14T12:32:24.360Z,6.60
2018-05-14T12:34:51.913Z,6.50
2018-05-14T12:37:19.500Z,6.50
2018-05-14T12:39:47.057Z,7.40
2018-05-14T12:42:14.638Z,8.20
2018-05-14T12:44:42.201Z,8.20
2018-05-14T12:47:09.916Z,6.70
2018-05-14T12:49:37.469Z,8.90
2018-05-14T12:52:05.041Z,9.43
2018-05-14T12:54:32.597Z,8.17
2018-05-14T12:57:00.183Z,9.00
2018-05-14T12:59:27.737Z,8.50
2018-05-14T13:01:55.321Z,7.80
2018-05-14T13:04:22.876Z,8.20
2018-05-14T13:06:51.217Z,8.87
2018-05-14T13:09:18.778Z,8.97
2018-05-14T13:11:46.354Z,8.80
2018-05-14T13:14:13.913Z,9.03
2018-05-14T13:16:41.474Z,9.47
2018-05-14T13:19:09.086Z,9.53
2018-05-14T13:21:36.641Z,10.30
2018-05-14T13:24:04.990Z,10.20
2018-05-14T13:26:33.309Z,11.13
2018-05-14T13:29:00.885Z,9.77
2018-05-14T13:31:28.446Z,9.17
2018-05-14T13:33:56.031Z,10.27
2018-05-14T13:36:23.591Z,10.23
2018-05-14T13:38:51.170Z,11.77
2018-05-14T13:41:18.741Z,12.33
2018-05-14T13:43:46.322Z,10.63
2018-05-14T13:46:13.882Z,12.00
2018-05-14T13:48:41.474Z,11.17
2018-05-14T13:51:09.031Z,11.43
2018-05-14T13:53:36.614Z,11.20
2018-05-14T13:56:04.961Z,11.80
2018-05-14T13:58:32.542Z,13.10
2018-05-14T14:01:00.196Z,14.90
2018-05-14T14:03:27.712Z,12.10
2018-05-14T14:05:55.272Z,11.90
2018-05-14T14:08:22.861Z,11.73
2018-05-14T14:10:50.421Z,12.37
2018-05-14T14:13:18.010Z,11.40
2018-05-14T14:15:45.571Z,11.90
2018-05-14T14:18:13.928Z,11.23
2018-05-14T14:20:41.486Z,12.10
2018-05-14T14:23:09.187Z,12.70
2018-05-14T14:25:36.657Z,11.83
2018-05-14T14:28:05.007Z,14.00
2018-05-14T14:30:33.334Z,12.77
2018-05-14T14:33:00.972Z,12.90
2018-05-14T14:35:28.537Z,13.97
2018-05-14T14:37:56.131Z,12.53
2018-05-14T14:40:23.733Z,13.47
2018-05-14T14:42:51.320Z,13.77
2018-05-14T14:45:18.880Z,13.17
2018-05-14T14:47:46.457Z,12.77
2018-05-14T14:50:14.017Z,13.20
2018-05-14T14:52:41.602Z,11.90
2018-05-14T14:55:10.697Z,13.53
2018-05-14T14:57:38.252Z,13.30
2018-05-14T15:00:05.834Z,13.40
2018-05-14T15:02:33.398Z,12.40
2018-05-14T15:05:00.993Z,13.90
2018-05-14T15:07:29.325Z,14.63
2018-05-14T15:09:56.906Z,15.07
2018-05-14T15:12:24.461Z,16.47
2018-05-14T15:14:52.037Z,17.27
2018-05-14T15:17:19.594Z,15.30
2018-05-14T15:19:47.174Z,16.80
2018-05-14T15:22:14.733Z,15.40
2018-05-14T15:24:43.086Z,14.53
2018-05-14T15:27:10.649Z,16.23
2018-05-14T15:29:38.231Z,15.80
2018-05-14T15:32:05.798Z,16.20
2018-05-14T15:34:33.390Z,15.30
2018-05-14T15:37:01.725Z,16.90
2018-05-14T15:39:29.305Z,19.43
2018-05-14T15:41:56.867Z,16.07
2018-05-14T15:44:24.450Z,18.97
2018-05-14T15:46:52.776Z,16.37
2018-05-14T15:49:20.357Z,16.20
2018-05-14T15:51:47.918Z,16.70
2018-05-14T15:54:15.497Z,18.37
2018-05-14T15:56:43.825Z,16.10
2018-05-14T15:59:11.409Z,23.83
2018-05-14T16:01:38.970Z,17.47
2018-05-14T16:04:06.553Z,16.37
2018-05-14T16:06:34.873Z,19.03
2018-05-14T16:09:02.449Z,23.60
2018-05-14T16:11:30.037Z,18.93
2018-05-14T16:13:58.384Z,18.80
2018-05-14T16:16:25.946Z,18.40
2018-05-14T16:18:53.530Z,16.50
2018-05-14T16:21:21.103Z,18.80
2018-05-14T16:23:48.664Z,19.20
2018-05-14T16:26:17.861Z,20.00
2018-05-14T16:28:45.421Z,20.53
2018-05-14T16:31:13.774Z,19.73
2018-05-14T16:33:41.341Z,19.77
2018-05-14T16:36:08.933Z,18.43
2018-05-14T16:38:36.496Z,17.27
2018-05-14T16:41:04.072Z,20.80
2018-05-14T16:43:31.630Z,18.97
2018-05-14T16:45:59.214Z,19.90
2018-05-14T16:48:26.861Z,18.93
2018-05-14T16:50:55.141Z,20.33
2018-05-14T16:53:22.722Z,17.40
2018-05-14T16:55:50.308Z,19.13
2018-05-14T16:58:17.865Z,19.57
2018-05-14T17:00:45.457Z,19.27
2018-05-14T17:03:13.014Z,19.53
2018-05-14T17:05:40.604Z,17.77
2018-05-14T17:08:08.160Z,17.60
2018-05-14T17:10:35.750Z,17.57
2018-05-14T17:13:03.310Z,16.00
2018-05-14T17:15:31.657Z,17.90
2018-05-14T17:17:59.220Z,18.10
2018-05-14T17:20:26.802Z,18.10
2018-05-14T17:22:54.370Z,16.43
2018-05-14T17:25:22.726Z,17.17
2018-05-14T17:27:50.874Z,14.80
2018-05-14T17:30:18.673Z,15.30
2018-05-14T17:32:48.135Z,15.87
2018-05-14T17:35:15.797Z,19.67
2018-05-14T17:37:43.459Z,16.90
2018-05-14T17:40:14.383Z,18.53
2018-05-14T17:42:42.350Z,16.63
2018-05-14T17:45:10.015Z,16.63
2018-05-14T17:47:37.579Z,16.07
2018-05-14T17:50:06.626Z,16.10
2018-05-14T17:52:34.959Z,16.60
2018-05-14T17:55:02.621Z,16.10
2018-05-14T17:57:30.185Z,15.50
2018-05-14T17:59:57.778Z,15.67
2018-05-14T18:02:25.349Z,15.33
2018-05-14T18:04:53.676Z,14.60
2018-05-14T18:07:21.266Z,13.57
2018-05-14T18:09:48.826Z,14.70
2018-05-14T18:12:16.410Z,12.20
2018-05-14T18:14:44.746Z,13.83
2018-05-14T18:17:12.327Z,15.13
2018-05-14T18:19:45.452Z,13.50
2018-05-14T18:22:13.033Z,12.33
2018-05-14T18:24:47.018Z,13.30
2018-05-14T18:30:15.678Z,13.40
2018-05-14T18:32:49.014Z,14.00
2018-05-14T18:35:20.361Z,15.40
2018-05-14T18:37:47.952Z,16.53
2018-05-14T18:40:15.514Z,22.10
2018-05-14T18:42:43.101Z,24.77
2018-05-14T18:45:10.666Z,21.90
2018-05-14T18:47:38.253Z,13.53
2018-05-14T18:50:05.814Z,14.80
2018-05-14T18:52:33.406Z,15.57
2018-05-14T18:55:01.466Z,14.73
2018-05-14T18:57:30.553Z,16.07
2018-05-14T19:00:09.378Z,15.60
2018-05-14T19:02:39.956Z,16.80
2018-05-14T19:05:10.114Z,17.70
2018-05-14T19:07:38.054Z,14.80
2018-05-14T19:10:11.484Z,14.70
2018-05-14T19:12:39.723Z,15.30
2018-05-14T19:15:12.945Z,14.90
2018-05-14T19:17:58.687Z,15.70
2018-05-14T19:20:26.250Z,14.00
2018-05-14T19:23:00.897Z,12.93
2018-05-14T19:25:28.521Z,14.97
2018-05-14T19:28:01.621Z,16.07
2018-05-14T19:30:29.213Z,16.27
2018-05-14T19:32:56.789Z,16.27
2018-05-14T19:35:30.091Z,15.10
2018-05-14T19:37:57.680Z,15.47
2018-05-14T19:40:31.220Z,14.73
2018-05-14T19:42:58.806Z,13.60
2018-05-14T19:45:26.362Z,12.47
2018-05-14T19:47:53.938Z,13.33
2018-05-14T19:50:21.583Z,13.90
2018-05-14T19:52:49.097Z,15.70
2018-05-14T19:55:17.416Z,14.20
2018-05-14T19:57:45.007Z,14.20
2018-05-14T20:00:12.574Z,12.53
2018-05-14T20:02:40.157Z,11.20
2018-05-14T20:05:07.717Z,11.00
2018-05-14T20:07:36.065Z,10.90
2018-05-14T20:10:03.666Z,12.17
2018-05-14T20:12:31.246Z,9.73
2018-05-14T20:14:58.809Z,10.70
2018-05-14T20:17:26.394Z,9.90
2018-05-14T20:19:53.949Z,11.90
2018-05-14T20:22:21.531Z,14.77
2018-05-14T20:24:49.093Z,12.93
2018-05-14T20:27:16.657Z,12.13
2018-05-14T20:29:45.000Z,9.90
2018-05-14T20:32:12.558Z,10.33
2018-05-14T20:34:40.136Z,10.40
2018-05-14T20:37:07.792Z,9.40
2018-05-14T20:39:36.074Z,8.90
2018-05-14T20:42:03.645Z,9.83
2018-05-14T20:44:31.278Z,10.93
2018-05-14T20:46:58.836Z,9.83
2018-05-14T20:49:26.418Z,9.93
2018-05-14T20:51:53.978Z,10.90
2018-05-14T20:54:21.562Z,13.60
2018-05-14T20:56:49.121Z,14.20
2018-05-14T20:59:16.703Z,13.00
2018-05-14T21:01:44.262Z,11.27
2018-05-14T21:04:11.838Z,20.90
2018-05-14T21:06:39.406Z,25.27
2018-05-14T21:09:06.994Z,14.27
2018-05-14T21:11:35.317Z,12.30
2018-05-14T21:14:02.896Z,11.23
2018-05-14T21:16:30.453Z,11.43
2018-05-14T21:18:58.041Z,12.10
2018-05-14T21:21:25.609Z,12.10
2018-05-14T21:23:53.958Z,12.07
2018-05-14T21:26:21.513Z,13.23
2018-05-14T21:28:49.102Z,12.27
2018-05-14T21:31:17.456Z,11.83
2018-05-14T21:33:45.040Z,12.70
2018-05-14T21:36:13.365Z,9.60
2018-05-14T21:38:40.946Z,10.90
2018-05-14T21:41:08.517Z,11.50
2018-05-14T21:43:36.109Z,13.50
2018-05-14T21:46:05.277Z,12.83
2018-05-14T21:48:32.860Z,12.30
2018-05-14T21:51:01.180Z,12.20
2018-05-14T21:53:28.733Z,9.70
2018-05-14T21:55:56.313Z,10.60
2018-05-14T21:58:24.635Z,11.50
2018-05-14T22:00:52.216Z,9.90
2018-05-14T22:03:19.778Z,10.60
2018-05-14T22:05:53.889Z,10.87
2018-05-14T22:08:21.444Z,9.17
2018-05-14T22:10:49.022Z,9.40
2018-05-14T22:13:16.572Z,9.40
2018-05-14T22:15:44.154Z,9.17
2018-05-14T22:18:11.718Z,12.33
2018-05-14T22:20:39.317Z,12.20
2018-05-14T22:23:07.641Z,12.17
2018-05-14T22:25:35.222Z,10.80
2018-05-14T22:28:02.782Z,9.60
2018-05-14T22:30:30.370Z,11.73
2018-05-14T22:32:58.695Z,12.10
2018-05-14T22:35:26.278Z,13.67
2018-05-14T22:37:53.839Z,14.20
2018-05-14T22:40:21.421Z,13.47
2018-05-14T22:42:49.756Z,18.67
2018-05-14T22:45:17.348Z,15.23
2018-05-14T22:47:45.057Z,13.43
2018-05-14T22:50:12.636Z,13.83
2018-05-14T22:52:40.276Z,13.43
2018-05-14T22:55:07.857Z,14.80
2018-05-14T22:57:35.413Z,14.90
2018-05-14T23:00:03.044Z,14.20
2018-05-14T23:02:30.612Z,16.07
2018-05-14T23:04:58.196Z,16.83
2018-05-14T23:07:25.936Z,17.33
2018-05-14T23:09:53.526Z,16.27
2018-05-14T23:12:21.089Z,14.50
2018-05-14T23:14:48.669Z,14.07
2018-05-14T23:17:16.225Z,17.43
2018-05-14T23:19:44.573Z,18.23
2018-05-14T23:22:16.969Z,18.90
2018-05-14T23:24:44.572Z,20.97
2018-05-14T23:27:12.138Z,20.60
2018-05-14T23:29:39.699Z,20.40
2018-05-14T23:32:07.278Z,19.73
2018-05-14T23:34:34.841Z,19.40
2018-05-14T23:37:02.424Z,19.50
2018-05-14T23:39:30.043Z,18.83
2018-05-14T23:41:57.585Z,18.43
2018-05-14T23:44:25.152Z,17.70
2018-05-14T23:46:52.741Z,17.10
2018-05-14T23:49:20.297Z,15.67
2018-05-14T23:51:47.882Z,17.77
2018-05-14T23:54:16.213Z,19.00
2018-05-14T23:56:43.789Z,17.20
2018-05-14T23:59:11.353Z,17.17
